createdAt,value
2019-06-10T00:01:51.384Z,100076.06
2019-06-10T00:07:11.874Z,100066.48
2019-06-10T00:12:31.462Z,100057.64
2019-06-10T00:18:07.037Z,100055.36
2019-06-10T00:23:12.472Z,100058.53
2019-06-10T00:28:31.419Z,100048.71
2019-06-10T00:33:51.922Z,100040.40
2019-06-10T00:39:13.585Z,100030.22
2019-06-10T00:44:31.390Z,100017.47
2019-06-10T00:49:51.448Z,100012.72
2019-06-10T00:55:13.484Z,100003.82
2019-06-10T01:00:31.770Z,100010.48
2019-06-10T01:05:51.045Z,100005.16
2019-06-10T01:11:17.131Z,100000.69
2019-06-10T01:16:31.776Z,99985.25
2019-06-10T01:21:51.379Z,99980.11
2019-06-10T01:27:11.883Z,99977.70
2019-06-10T01:32:31.286Z,99977.16
2019-06-10T01:37:51.990Z,99971.23
2019-06-10T01:43:13.958Z,99961.33
2019-06-10T01:48:43.205Z,99957.09
2019-06-10T01:53:52.576Z,99955.11
2019-06-10T01:59:13.747Z,99949.52
2019-06-10T02:04:32.375Z,99949.55
2019-06-10T02:09:51.765Z,99939.22
2019-06-10T02:15:12.607Z,99925.63
2019-06-10T02:20:31.866Z,99903.30
2019-06-10T02:31:21.071Z,99882.94
2019-06-10T02:36:37.229Z,99873.28
2019-06-10T02:41:57.625Z,99876.07
2019-06-10T02:47:19.135Z,99873.48
2019-06-10T02:52:38.467Z,99871.22
2019-06-10T02:57:57.187Z,99873.31
2019-06-10T03:03:22.805Z,99872.94
2019-06-10T03:08:37.000Z,99880.12
2019-06-10T03:13:55.799Z,99870.67
2019-06-10T03:19:15.767Z,99863.38
2019-06-10T03:24:34.523Z,99863.38
2019-06-10T03:29:53.156Z,99872.19
2019-06-10T03:35:13.266Z,99864.41
2019-06-10T03:40:32.806Z,99865.88
2019-06-10T03:45:53.163Z,99867.96
2019-06-10T03:51:12.628Z,99857.27
2019-06-10T03:56:32.249Z,99852.84
2019-06-10T04:01:52.929Z,99841.25
2019-06-10T04:07:14.249Z,99842.06
2019-06-10T04:12:32.752Z,99833.86
2019-06-10T04:17:53.078Z,99837.95
2019-06-10T04:23:12.198Z,99834.37
2019-06-10T04:28:33.443Z,99836.16
2019-06-10T04:33:52.379Z,99835.94
2019-06-10T04:39:12.571Z,99835.22
2019-06-10T04:44:32.988Z,99822.53
2019-06-10T04:49:52.233Z,99814.34
2019-06-10T04:55:12.640Z,99814.82
2019-06-10T05:00:33.081Z,99814.23
2019-06-10T05:05:52.616Z,99815.00
2019-06-10T05:11:12.855Z,99815.41
2019-06-10T05:16:35.356Z,99812.16
2019-06-10T05:21:52.491Z,99808.84
2019-06-10T05:27:12.500Z,99807.86
2019-06-10T05:32:33.378Z,99814.59
2019-06-10T05:37:52.732Z,99810.73
2019-06-10T05:43:13.116Z,99813.73
2019-06-10T05:48:33.698Z,99813.75
2019-06-10T05:53:52.928Z,99802.37
2019-06-10T05:59:12.269Z,99803.67
2019-06-10T06:04:33.038Z,99804.78
2019-06-10T06:09:53.234Z,99810.88
2019-06-10T06:15:12.908Z,99795.13
2019-06-10T06:20:34.114Z,99795.27
2019-06-10T06:25:53.159Z,99790.27
2019-06-10T06:31:12.719Z,99788.01
2019-06-10T06:36:33.765Z,99787.20
2019-06-10T06:41:52.858Z,99783.16
2019-06-10T06:47:13.215Z,99785.66
2019-06-10T06:53:04.881Z,99777.41
2019-06-10T06:57:52.936Z,99780.61
2019-06-10T07:03:12.572Z,99778.52
2019-06-10T07:08:36.178Z,99785.63
2019-06-10T07:13:56.078Z,99787.16
2019-06-10T07:19:14.730Z,99784.27
2019-06-10T07:24:35.999Z,99783.78
2019-06-10T07:29:53.649Z,99780.26
2019-06-10T07:35:13.004Z,99778.84
2019-06-10T07:40:33.396Z,99779.75
2019-06-10T07:45:53.427Z,99775.53
2019-06-10T07:51:13.213Z,99770.06
2019-06-10T07:56:38.224Z,99770.06
2019-06-10T08:01:55.171Z,99750.17
2019-06-10T08:07:12.895Z,99739.34
2019-06-10T08:12:32.573Z,99736.84
2019-06-10T08:17:53.092Z,99738.55
2019-06-10T08:23:12.627Z,99738.19
2019-06-10T08:28:33.316Z,99728.13
2019-06-10T08:33:53.315Z,99724.09
2019-06-10T08:39:15.802Z,99719.23
2019-06-10T08:44:32.902Z,99706.52
2019-06-10T08:49:53.102Z,99702.72
2019-06-10T08:55:12.682Z,99695.23
2019-06-10T09:00:33.220Z,99690.58
2019-06-10T09:05:54.483Z,99683.80
2019-06-10T09:11:13.361Z,99684.27
2019-06-10T09:16:32.975Z,99678.63
2019-06-10T09:21:55.950Z,99691.80
2019-06-10T09:27:12.986Z,99675.22
2019-06-10T09:32:32.573Z,99676.97
2019-06-10T09:37:55.006Z,99671.04
2019-06-10T09:43:12.820Z,99681.31
2019-06-10T09:48:33.591Z,99684.61
2019-06-10T09:54:02.346Z,99679.23
2019-06-10T09:59:14.614Z,99674.10
2019-06-10T10:04:36.442Z,99673.64
2019-06-10T10:09:56.987Z,99649.84
2019-06-10T10:15:26.447Z,99654.25
2019-06-10T10:20:35.345Z,99655.38
2019-06-10T10:25:56.949Z,99643.14
2019-06-10T10:31:14.318Z,99630.91
2019-06-10T10:36:33.656Z,99625.08
2019-06-10T10:41:56.547Z,99624.05
2019-06-10T10:47:12.693Z,99613.46
2019-06-10T10:52:33.041Z,99628.86
2019-06-10T10:57:54.328Z,99613.91
2019-06-10T11:03:13.357Z,99620.23
2019-06-10T11:08:33.382Z,99619.13
2019-06-10T11:13:56.711Z,99616.35
2019-06-10T11:19:13.332Z,99598.63
2019-06-10T11:24:37.845Z,99590.78
2019-06-10T11:29:53.966Z,99584.73
2019-06-10T11:35:13.363Z,99582.48
2019-06-10T11:40:34.222Z,99582.06
2019-06-10T11:45:59.188Z,99574.15
2019-06-10T11:51:13.254Z,99578.27
2019-06-10T11:56:33.671Z,99563.66
2019-06-10T12:01:55.963Z,99553.92
2019-06-10T12:07:13.037Z,99556.70
2019-06-10T12:12:33.659Z,99567.44
2019-06-10T12:17:58.655Z,99549.69
2019-06-10T12:23:13.459Z,99551.45
2019-06-10T12:28:32.707Z,99546.94
2019-06-10T12:33:55.314Z,99532.62
2019-06-10T12:39:15.339Z,99521.16
2019-06-10T12:44:33.701Z,99502.28
2019-06-10T12:49:55.768Z,99503.95
2019-06-10T12:55:14.975Z,99493.98
2019-06-10T13:00:36.505Z,99490.37
2019-06-10T13:05:59.595Z,99488.34
2019-06-10T13:11:18.799Z,99489.67
2019-06-10T13:16:37.427Z,99480.78
2019-06-10T13:21:57.184Z,99481.88
2019-06-10T13:27:15.975Z,99489.66
2019-06-10T13:32:34.920Z,99486.21
2019-06-10T13:37:53.530Z,99472.41
2019-06-10T13:43:13.041Z,99471.92
2019-06-10T13:48:32.162Z,99463.83
2019-06-10T13:53:53.576Z,99463.34
2019-06-10T13:59:11.861Z,99462.23
2019-06-10T14:04:33.426Z,99461.08
2019-06-10T14:09:52.233Z,99457.42
2019-06-10T14:15:12.161Z,99449.22
2019-06-10T14:20:32.531Z,99442.90
2019-06-10T14:25:52.575Z,99429.45
2019-06-10T14:31:35.549Z,99428.63
2019-06-10T14:36:32.509Z,99428.46
2019-06-10T14:41:52.260Z,99432.38
2019-06-10T14:47:13.564Z,99441.86
2019-06-10T14:52:32.074Z,99435.28
2019-06-10T14:57:53.108Z,99439.04
2019-06-10T15:03:16.202Z,99443.36
2019-06-10T15:08:32.352Z,99448.14
2019-06-10T15:13:52.348Z,99440.41
2019-06-10T15:19:18.175Z,99438.02
2019-06-10T15:24:33.455Z,99435.86
2019-06-10T15:29:52.537Z,99436.05
2019-06-10T15:35:14.181Z,99416.31
2019-06-10T15:40:32.474Z,99403.28
2019-06-10T15:45:52.855Z,99382.40
2019-06-10T15:51:15.320Z,99373.24
2019-06-10T15:56:45.619Z,99375.11
2019-06-10T16:01:53.117Z,99367.75
2019-06-10T16:07:14.626Z,99357.09
2019-06-10T16:12:33.009Z,99359.13
2019-06-10T16:17:53.604Z,99368.84
2019-06-10T16:23:12.588Z,99374.06
2019-06-10T16:28:33.003Z,99381.66
2019-06-10T16:33:52.698Z,99394.45
2019-06-10T16:39:16.984Z,99385.91
2019-06-10T16:44:35.050Z,99394.09
2019-06-10T16:49:53.668Z,99402.56
2019-06-10T16:55:13.111Z,99397.03
2019-06-10T17:00:34.897Z,99391.16
2019-06-10T17:05:53.322Z,99386.77
2019-06-10T17:11:12.525Z,99383.63
2019-06-10T17:16:31.189Z,99377.66
2019-06-10T17:21:49.879Z,99372.42
2019-06-10T17:27:08.514Z,99361.02
2019-06-10T17:32:28.416Z,99375.15
2019-06-10T17:37:47.133Z,99379.19
2019-06-10T17:43:05.804Z,99384.73
2019-06-10T17:48:26.034Z,99392.66
2019-06-10T17:53:45.317Z,99386.80
2019-06-10T17:59:03.935Z,99370.97
2019-06-10T18:04:24.091Z,99371.49
2019-06-10T18:09:43.358Z,99371.98
2019-06-10T18:15:03.560Z,99377.47
2019-06-10T18:20:22.733Z,99389.25
2019-06-10T18:25:43.232Z,99401.50
2019-06-10T18:31:01.763Z,99406.50
2019-06-10T18:36:24.151Z,99399.72
2019-06-10T18:41:41.985Z,99408.19
2019-06-10T18:47:02.936Z,99413.23
2019-06-10T18:52:23.300Z,99420.12
2019-06-10T18:57:42.643Z,99410.48
2019-06-10T19:03:10.293Z,99420.38
2019-06-10T19:08:22.423Z,99423.09
2019-06-10T19:13:43.616Z,99418.76
2019-06-10T19:19:02.734Z,99418.39
2019-06-10T19:24:23.476Z,99434.78
2019-06-10T19:29:50.614Z,99436.31
2019-06-10T19:35:03.822Z,99447.57
2019-06-10T19:40:23.213Z,99443.20
2019-06-10T19:45:42.801Z,99452.52
2019-06-10T19:51:03.095Z,99453.60
2019-06-10T19:56:24.192Z,99474.63
2019-06-10T20:01:47.912Z,99480.13
2019-06-10T20:07:02.557Z,99492.48
2019-06-10T20:12:22.937Z,99504.75
2019-06-10T20:17:41.685Z,99507.95
2019-06-10T20:23:03.110Z,99517.11
2019-06-10T20:28:22.354Z,99511.27
2019-06-10T20:33:43.100Z,99500.34
2019-06-10T20:39:01.927Z,99488.58
2019-06-10T20:44:22.306Z,99477.66
2019-06-10T20:49:44.571Z,99491.11
2019-06-10T20:55:02.972Z,99503.56
2019-06-10T21:00:33.801Z,99498.80
2019-06-10T21:05:53.499Z,99501.48
2019-06-10T21:11:12.927Z,99489.05
2019-06-10T21:16:32.181Z,99496.61
2019-06-10T21:21:54.519Z,99524.49
2019-06-10T21:27:11.190Z,99519.13
2019-06-10T21:32:32.555Z,99513.23
2019-06-10T21:37:51.623Z,99512.53
2019-06-10T21:43:10.361Z,99511.17
2019-06-10T21:48:28.991Z,99522.08
2019-06-10T21:53:48.600Z,99511.52
2019-06-10T21:59:07.375Z,99512.81
2019-06-10T22:04:26.032Z,99495.16
2019-06-10T22:09:45.630Z,99493.26
2019-06-10T22:15:06.590Z,99498.31
2019-06-10T22:20:25.235Z,99506.36
2019-06-10T22:25:44.832Z,99495.83
2019-06-10T22:31:16.038Z,99506.51
2019-06-10T22:36:23.936Z,99514.91
2019-06-10T22:41:42.732Z,99521.44
2019-06-10T22:47:02.861Z,99537.49
2019-06-10T22:52:23.116Z,99528.70
2019-06-10T22:57:43.922Z,99528.58
2019-06-10T23:03:02.821Z,99524.89
2019-06-10T23:08:23.074Z,99529.61
2019-06-10T23:13:42.433Z,99544.75
2019-06-10T23:19:02.930Z,99537.81
2019-06-10T23:24:22.704Z,99532.92
2019-06-10T23:29:42.767Z,99536.26
2019-06-10T23:35:01.526Z,99534.52
2019-06-10T23:40:20.092Z,99549.92
2019-06-10T23:45:38.663Z,99572.78
2019-06-10T23:50:58.629Z,99560.86
2019-06-10T23:56:17.634Z,99564.41
